createdAt,value
2022-09-20T00:01:07.865Z,81.95
2022-09-20T00:03:12.462Z,81.79
2022-09-20T00:05:15.942Z,82.09
2022-09-20T00:07:19.306Z,82.06
2022-09-20T00:09:24.082Z,82.08
2022-09-20T00:11:29.471Z,81.98
2022-09-20T00:13:33.534Z,82.23
2022-09-20T00:15:42.018Z,81.71
2022-09-20T00:17:45.478Z,81.98
2022-09-20T00:19:48.809Z,82.10
2022-09-20T00:21:52.304Z,82.05
2022-09-20T00:23:56.640Z,82.09
2022-09-20T00:26:03.153Z,82.45
2022-09-20T00:28:06.874Z,82.49
2022-09-20T00:30:11.157Z,82.36
2022-09-20T00:32:14.559Z,82.26
2022-09-20T00:34:37.632Z,82.55
2022-09-20T00:36:41.086Z,82.52
2022-09-20T00:38:44.402Z,82.48
2022-09-20T00:40:47.694Z,82.54
2022-09-20T00:42:52.489Z,82.73
2022-09-20T00:44:59.834Z,82.83
2022-09-20T00:47:04.199Z,82.80
2022-09-20T00:49:15.423Z,82.56
2022-09-20T00:51:25.565Z,82.51
2022-09-20T00:53:32.451Z,82.38
2022-09-20T00:55:37.957Z,82.43
2022-09-20T00:57:42.510Z,82.17
2022-09-20T00:59:49.968Z,82.43
2022-09-20T01:01:56.946Z,82.61
2022-09-20T01:04:01.971Z,82.51
2022-09-20T01:06:08.982Z,82.93
2022-09-20T01:08:13.222Z,82.56
2022-09-20T01:10:16.931Z,82.74
2022-09-20T01:12:23.048Z,82.69
2022-09-20T01:14:27.382Z,82.87
2022-09-20T01:16:33.413Z,82.78
2022-09-20T01:18:38.658Z,83.03
2022-09-20T01:20:44.046Z,82.98
2022-09-20T01:23:06.018Z,82.76
2022-09-20T01:25:14.446Z,83.25
2022-09-20T01:27:24.356Z,83.22
2022-09-20T01:29:40.985Z,83.03
2022-09-20T01:31:47.668Z,83.24
2022-09-20T01:33:54.797Z,83.27
2022-09-20T01:36:02.023Z,83.80
2022-09-20T01:38:25.870Z,83.73
2022-09-20T01:40:37.004Z,83.66
2022-09-20T01:42:51.129Z,83.74
2022-09-20T01:45:03.909Z,83.98
2022-09-20T01:47:18.595Z,83.68
2022-09-20T01:49:35.973Z,83.79
2022-09-20T01:52:12.563Z,83.84
2022-09-20T01:54:46.728Z,84.09
2022-09-20T01:57:13.397Z,83.99
2022-09-20T01:59:46.386Z,83.79
2022-09-20T02:02:23.309Z,83.86
2022-09-20T02:04:58.970Z,84.07
2022-09-20T02:07:27.331Z,83.90
2022-09-20T02:09:59.247Z,84.28
2022-09-20T02:12:41.263Z,84.37
2022-09-20T02:14:55.020Z,84.03
2022-09-20T02:17:08.048Z,84.17
2022-09-20T02:19:29.023Z,83.98
2022-09-20T02:21:39.001Z,83.88
2022-09-20T02:23:52.371Z,83.96
2022-09-20T02:26:23.122Z,84.02
2022-09-20T02:28:40.355Z,83.61
2022-09-20T02:30:55.287Z,84.00
2022-09-20T02:33:30.919Z,84.04
2022-09-20T02:35:48.242Z,84.16
2022-09-20T02:37:58.826Z,84.31
2022-09-20T02:40:15.609Z,84.57
2022-09-20T02:42:21.566Z,84.79
2022-09-20T02:44:47.107Z,84.73
2022-09-20T02:47:00.009Z,85.17
2022-09-20T02:49:09.533Z,84.82
2022-09-20T02:51:22.797Z,84.79
2022-09-20T02:53:37.838Z,84.63
2022-09-20T02:55:48.131Z,84.65
2022-09-20T02:57:59.719Z,84.61
2022-09-20T03:00:08.207Z,84.76
2022-09-20T03:02:21.951Z,84.68
2022-09-20T03:04:39.442Z,84.79
2022-09-20T03:06:50.600Z,84.71
2022-09-20T03:09:03.605Z,84.65
2022-09-20T03:11:19.576Z,84.58
2022-09-20T03:13:35.553Z,84.53
2022-09-20T03:15:52.431Z,84.54
2022-09-20T03:18:07.749Z,84.40
2022-09-20T03:20:21.733Z,84.32
2022-09-20T03:22:46.900Z,84.58
2022-09-20T03:25:06.779Z,84.10
2022-09-20T03:27:18.350Z,83.94
2022-09-20T03:29:35.398Z,84.09
2022-09-20T03:32:02.628Z,84.11
2022-09-20T03:34:19.011Z,83.90
2022-09-20T03:36:39.420Z,83.90
2022-09-20T03:39:03.400Z,83.93
2022-09-20T03:41:27.949Z,83.77
2022-09-20T03:43:49.162Z,83.86
2022-09-20T03:46:08.931Z,83.93
2022-09-20T03:48:34.721Z,84.06
2022-09-20T03:50:52.474Z,83.97
2022-09-20T03:53:20.114Z,83.75
2022-09-20T03:56:00.758Z,83.95
2022-09-20T03:58:24.237Z,83.97
2022-09-20T04:00:44.114Z,83.21
2022-09-20T04:03:09.129Z,83.50
2022-09-20T04:05:17.126Z,83.35
2022-09-20T04:07:28.628Z,83.51
2022-09-20T04:09:57.068Z,83.82
2022-09-20T04:12:08.474Z,83.46
2022-09-20T04:14:21.776Z,84.07
2022-09-20T04:16:40.720Z,84.04
2022-09-20T04:18:56.816Z,83.96
2022-09-20T04:21:06.981Z,84.03
2022-09-20T04:23:19.272Z,84.01
2022-09-20T04:25:29.323Z,83.89
2022-09-20T04:27:40.273Z,83.78
2022-09-20T04:29:48.563Z,83.79
2022-09-20T04:31:57.357Z,84.17
2022-09-20T04:34:03.122Z,84.34
2022-09-20T04:36:29.561Z,84.41
2022-09-20T04:38:35.744Z,84.75
2022-09-20T04:40:59.023Z,84.62
2022-09-20T04:43:33.032Z,84.84
2022-09-20T04:46:30.590Z,84.51
2022-09-20T04:49:02.555Z,84.44
2022-09-20T04:51:34.773Z,84.62
2022-09-20T04:54:31.363Z,84.66
2022-09-20T04:56:50.111Z,84.66
2022-09-20T04:59:10.436Z,84.51
2022-09-20T05:01:43.603Z,84.76
2022-09-20T05:04:24.706Z,84.48
2022-09-20T05:07:04.542Z,84.69
2022-09-20T05:09:38.553Z,87.33
2022-09-20T05:12:03.512Z,82.99
2022-09-20T05:14:45.833Z,83.12
2022-09-20T05:17:09.166Z,83.27
2022-09-20T05:19:31.706Z,83.64
2022-09-20T05:21:48.651Z,84.36
2022-09-20T05:24:12.524Z,84.42
2022-09-20T05:26:27.882Z,84.19
2022-09-20T05:28:39.169Z,84.10
2022-09-20T05:30:47.923Z,84.40
2022-09-20T05:33:00.101Z,84.57
2022-09-20T05:35:08.846Z,84.59
2022-09-20T05:37:25.316Z,84.90
2022-09-20T05:39:35.237Z,84.90
2022-09-20T05:41:42.663Z,84.69
2022-09-20T05:43:54.255Z,85.05
2022-09-20T05:46:11.566Z,85.15
2022-09-20T05:48:19.220Z,84.96
2022-09-20T05:50:43.841Z,84.97
2022-09-20T05:52:57.884Z,85.33
2022-09-20T05:55:26.481Z,85.17
2022-09-20T05:57:40.780Z,85.22
2022-09-20T05:59:58.670Z,85.44
2022-09-20T06:02:15.475Z,85.29
2022-09-20T06:04:24.792Z,85.37
2022-09-20T06:06:33.111Z,85.14
2022-09-20T06:09:04.308Z,85.29
2022-09-20T06:11:55.533Z,85.00
2022-09-20T06:14:12.110Z,85.14
2022-09-20T06:16:23.047Z,85.07
2022-09-20T06:18:33.326Z,85.73
2022-09-20T06:20:46.791Z,85.79
2022-09-20T06:22:53.728Z,85.48
2022-09-20T06:25:03.268Z,85.92
2022-09-20T06:27:12.030Z,85.88
2022-09-20T06:29:17.959Z,85.70
2022-09-20T06:31:21.716Z,85.37
2022-09-20T06:33:26.613Z,85.92
2022-09-20T06:35:38.083Z,85.57
2022-09-20T06:38:06.951Z,85.71
2022-09-20T06:40:49.780Z,85.57
2022-09-20T06:42:54.957Z,85.55
2022-09-20T06:44:58.446Z,85.54
2022-09-20T06:47:01.797Z,85.54
2022-09-20T06:49:09.569Z,84.90
2022-09-20T06:51:17.228Z,85.02
2022-09-20T06:53:32.473Z,85.23
2022-09-20T06:55:40.942Z,85.19
2022-09-20T06:57:44.314Z,84.57
2022-09-20T06:59:47.653Z,84.41
2022-09-20T07:01:51.760Z,84.72
2022-09-20T07:03:55.092Z,84.52
2022-09-20T07:05:58.875Z,83.93
2022-09-20T07:08:03.969Z,84.25
2022-09-20T07:10:07.721Z,84.31
2022-09-20T07:12:12.022Z,84.48
2022-09-20T07:14:15.534Z,84.22
2022-09-20T07:16:19.918Z,84.24
2022-09-20T07:18:23.252Z,84.78
2022-09-20T07:20:26.921Z,84.37
2022-09-20T07:22:30.288Z,84.03
2022-09-20T07:24:34.983Z,84.05
2022-09-20T07:26:38.878Z,83.87
2022-09-20T07:28:42.211Z,83.68
2022-09-20T07:30:45.802Z,83.71
2022-09-20T07:32:50.002Z,83.18
2022-09-20T07:34:53.438Z,83.47
2022-09-20T07:36:59.672Z,83.64
2022-09-20T07:39:02.985Z,83.63
2022-09-20T07:41:07.778Z,83.26
2022-09-20T07:43:11.105Z,82.87
2022-09-20T07:45:14.466Z,82.11
2022-09-20T07:47:18.511Z,81.97
2022-09-20T07:49:21.959Z,81.22
2022-09-20T07:51:25.257Z,81.30
2022-09-20T07:53:29.115Z,80.79
2022-09-20T07:55:32.400Z,80.33
2022-09-20T07:57:38.337Z,80.24
2022-09-20T07:59:41.746Z,79.93
2022-09-20T08:01:45.063Z,79.72
2022-09-20T08:03:48.412Z,79.17
2022-09-20T08:05:51.822Z,78.87
2022-09-20T08:07:56.387Z,78.38
2022-09-20T08:09:59.761Z,78.41
2022-09-20T08:14:28.586Z,76.66
2022-09-20T08:16:32.968Z,75.93
2022-09-20T08:18:37.062Z,76.29
2022-09-20T08:20:40.578Z,75.71
2022-09-20T08:22:47.529Z,75.32
2022-09-20T08:24:59.871Z,74.80
2022-09-20T08:27:04.084Z,74.42
2022-09-20T08:29:07.524Z,74.23
2022-09-20T08:31:14.059Z,73.29
2022-09-20T08:33:20.458Z,72.58
2022-09-20T08:35:25.356Z,72.36
2022-09-20T08:37:28.814Z,71.38
2022-09-20T08:41:58.231Z,70.42
2022-09-20T08:44:05.525Z,70.41
2022-09-20T08:46:15.391Z,70.17
2022-09-20T08:48:21.719Z,69.88
2022-09-20T08:50:25.092Z,69.72
2022-09-20T08:52:36.370Z,69.70
2022-09-20T08:54:43.232Z,70.01
2022-09-20T08:56:49.811Z,70.45
2022-09-20T08:58:53.378Z,70.22
2022-09-20T09:00:58.665Z,70.38
2022-09-20T09:03:06.836Z,70.03
2022-09-20T09:05:26.289Z,71.14
2022-09-20T09:07:30.710Z,70.05
2022-09-20T09:09:41.132Z,70.03
2022-09-20T09:11:46.228Z,70.14
2022-09-20T09:13:54.403Z,69.62
2022-09-20T09:16:00.652Z,69.54
2022-09-20T09:18:10.520Z,69.74
2022-09-20T09:20:21.573Z,70.06
2022-09-20T09:22:32.156Z,70.42
2022-09-20T09:24:35.582Z,70.82
2022-09-20T09:26:40.819Z,69.89
2022-09-20T09:28:44.194Z,70.10
2022-09-20T09:30:49.185Z,69.89
2022-09-20T09:32:53.074Z,69.84
2022-09-20T09:35:09.066Z,70.46
2022-09-20T09:37:28.314Z,70.75
2022-09-20T09:39:35.425Z,70.94
2022-09-20T09:41:38.769Z,71.17
2022-09-20T09:43:42.063Z,70.86
2022-09-20T09:45:45.538Z,70.43
2022-09-20T09:47:48.995Z,70.37
2022-09-20T09:50:01.854Z,70.22
2022-09-20T09:52:14.981Z,70.57
2022-09-20T09:54:19.670Z,70.20
2022-09-20T09:56:38.986Z,69.61
2022-09-20T09:58:58.345Z,69.29
2022-09-20T10:01:07.715Z,69.11
2022-09-20T10:03:35.391Z,68.56
2022-09-20T10:05:48.437Z,68.69
2022-09-20T10:08:01.202Z,68.49
2022-09-20T10:10:13.461Z,68.05
2022-09-20T10:12:36.079Z,67.38
2022-09-20T10:14:51.511Z,66.58
2022-09-20T10:17:09.339Z,65.82
2022-09-20T10:19:24.660Z,66.16
2022-09-20T10:21:44.942Z,65.67
2022-09-20T10:24:04.250Z,65.56
2022-09-20T10:26:21.636Z,65.41
2022-09-20T10:28:48.274Z,64.54
2022-09-20T10:31:01.653Z,64.41
2022-09-20T10:33:17.456Z,63.43
2022-09-20T10:35:27.674Z,63.27
2022-09-20T10:37:49.018Z,63.53
2022-09-20T10:40:02.607Z,63.90
2022-09-20T10:42:35.110Z,62.53
2022-09-20T10:44:53.381Z,62.12
2022-09-20T10:47:06.784Z,61.37
2022-09-20T10:49:34.731Z,59.54
2022-09-20T10:51:48.362Z,59.55
2022-09-20T10:54:04.676Z,59.82
2022-09-20T10:56:23.926Z,60.19
2022-09-20T10:58:43.693Z,60.17
2022-09-20T11:00:58.031Z,60.17
2022-09-20T11:03:17.869Z,60.65
2022-09-20T11:05:34.867Z,60.90
2022-09-20T11:07:53.469Z,60.82
2022-09-20T11:10:05.735Z,61.42
2022-09-20T11:12:17.662Z,60.96
2022-09-20T11:14:31.479Z,61.89
2022-09-20T11:16:40.774Z,62.17
2022-09-20T11:18:50.486Z,62.57
2022-09-20T11:21:01.871Z,62.91
2022-09-20T11:23:12.322Z,64.19
2022-09-20T11:25:23.119Z,65.26
2022-09-20T11:27:33.685Z,66.99
2022-09-20T11:29:42.182Z,68.02
2022-09-20T11:31:50.386Z,69.07
2022-09-20T11:33:59.528Z,69.58
2022-09-20T11:36:06.569Z,69.67
2022-09-20T11:38:14.579Z,70.08
2022-09-20T11:40:26.747Z,70.48
2022-09-20T11:42:36.391Z,70.51
2022-09-20T11:44:42.101Z,70.24
2022-09-20T11:46:52.898Z,69.91
2022-09-20T11:49:01.844Z,69.46
2022-09-20T11:51:27.783Z,69.10
2022-09-20T11:54:05.055Z,67.40
2022-09-20T11:56:15.960Z,67.03
2022-09-20T11:58:22.314Z,66.47
2022-09-20T12:00:31.205Z,65.78
2022-09-20T12:02:37.540Z,66.15
2022-09-20T12:04:46.521Z,64.88
2022-09-20T12:07:04.575Z,64.35
2022-09-20T12:09:25.202Z,63.06
2022-09-20T12:11:32.932Z,62.91
2022-09-20T12:13:39.569Z,61.72
2022-09-20T12:15:43.516Z,60.10
2022-09-20T12:18:16.495Z,60.30
2022-09-20T12:20:57.024Z,58.02
2022-09-20T12:23:35.195Z,58.00
2022-09-20T12:25:40.836Z,53.72
2022-09-20T12:27:59.057Z,53.74
2022-09-20T12:30:16.809Z,53.14
2022-09-20T12:32:54.093Z,51.90
2022-09-20T12:34:57.392Z,51.82
2022-09-20T12:37:22.467Z,51.32
2022-09-20T12:39:30.053Z,50.52
2022-09-20T12:41:49.006Z,50.97
2022-09-20T12:44:24.189Z,52.17
2022-09-20T12:46:33.667Z,52.37
2022-09-20T12:48:39.013Z,52.79
2022-09-20T12:50:59.974Z,51.93
2022-09-20T12:53:04.392Z,52.68
2022-09-20T12:55:11.221Z,50.20
2022-09-20T12:57:31.970Z,49.05
2022-09-20T12:59:36.818Z,48.89
2022-09-20T13:01:41.157Z,49.59
2022-09-20T13:03:46.864Z,51.93
2022-09-20T13:05:52.557Z,54.16
2022-09-20T13:08:01.405Z,56.10
2022-09-20T13:10:18.833Z,57.45
2022-09-20T13:12:22.485Z,57.83
2022-09-20T13:14:28.847Z,58.28
2022-09-20T13:16:41.119Z,58.85
2022-09-20T13:18:44.680Z,59.65
2022-09-20T13:20:48.268Z,59.66
2022-09-20T13:22:57.110Z,59.54
2022-09-20T13:25:06.982Z,60.00
2022-09-20T13:27:19.246Z,60.55
2022-09-20T13:29:31.389Z,61.50
2022-09-20T13:31:36.276Z,61.26
2022-09-20T13:33:39.687Z,62.02
2022-09-20T13:35:46.927Z,63.92
2022-09-20T13:37:55.985Z,63.92
2022-09-20T13:39:59.754Z,63.97
2022-09-20T13:42:07.962Z,63.82
2022-09-20T13:44:18.033Z,62.67
2022-09-20T13:46:24.826Z,63.08
2022-09-20T13:48:31.402Z,61.93
2022-09-20T13:50:39.244Z,59.34
2022-09-20T13:52:52.345Z,58.07
2022-09-20T13:54:56.253Z,55.91
2022-09-20T13:57:03.242Z,54.50
2022-09-20T13:59:06.741Z,53.62
2022-09-20T14:01:27.648Z,51.56
2022-09-20T14:03:35.544Z,49.64
2022-09-20T14:05:38.904Z,50.12
2022-09-20T14:07:45.668Z,50.69
2022-09-20T14:09:48.969Z,50.04
2022-09-20T14:11:52.609Z,47.34
2022-09-20T14:13:57.957Z,48.07
2022-09-20T14:16:01.822Z,47.39
2022-09-20T14:18:07.982Z,46.62
2022-09-20T14:20:17.972Z,46.26
2022-09-20T14:22:25.055Z,46.93
2022-09-20T14:24:31.879Z,47.76
2022-09-20T14:26:36.297Z,47.91
2022-09-20T14:28:39.685Z,48.06
2022-09-20T14:30:42.972Z,47.22
2022-09-20T14:32:54.118Z,47.92
2022-09-20T14:35:04.938Z,47.07
2022-09-20T14:37:14.694Z,47.42
2022-09-20T14:39:19.950Z,47.28
2022-09-20T14:41:29.546Z,47.42
2022-09-20T14:43:35.162Z,46.75
2022-09-20T14:45:43.048Z,47.12
2022-09-20T14:47:55.343Z,47.50
2022-09-20T14:49:59.088Z,47.24
2022-09-20T14:52:39.338Z,48.37
2022-09-20T14:54:44.116Z,47.47
2022-09-20T14:56:50.922Z,46.41
2022-09-20T14:59:22.621Z,45.85
2022-09-20T15:01:27.149Z,46.94
2022-09-20T15:03:33.901Z,48.26
2022-09-20T15:05:37.201Z,47.61
2022-09-20T15:07:40.516Z,47.15
2022-09-20T15:09:45.491Z,48.47
2022-09-20T15:11:59.430Z,49.02
2022-09-20T15:14:02.723Z,49.21
2022-09-20T15:16:06.435Z,49.49
2022-09-20T15:18:19.751Z,48.72
2022-09-20T15:20:24.181Z,48.28
2022-09-20T15:22:28.056Z,47.85
2022-09-20T15:24:31.460Z,46.80
2022-09-20T15:26:36.117Z,47.31
2022-09-20T15:28:39.978Z,45.91
2022-09-20T15:30:44.021Z,47.31
2022-09-20T15:32:48.077Z,47.01
2022-09-20T15:34:51.470Z,46.30
2022-09-20T15:36:55.177Z,45.70
2022-09-20T15:38:58.831Z,45.59
2022-09-20T15:41:04.648Z,45.43
2022-09-20T15:43:11.162Z,45.08
2022-09-20T15:45:14.765Z,44.87
2022-09-20T15:47:18.533Z,43.88
2022-09-20T15:49:22.221Z,45.13
2022-09-20T15:51:25.738Z,45.34
2022-09-20T15:53:31.727Z,46.36
2022-09-20T15:55:37.821Z,46.54
2022-09-20T15:57:41.893Z,46.56
2022-09-20T15:59:46.682Z,47.25
2022-09-20T16:01:51.539Z,46.36
2022-09-20T16:03:55.941Z,45.65
2022-09-20T16:06:04.152Z,45.42
2022-09-20T16:08:07.971Z,45.79
2022-09-20T16:10:11.279Z,46.86
2022-09-20T16:12:14.719Z,45.85
2022-09-20T16:14:18.045Z,48.28
2022-09-20T16:16:23.490Z,46.98
2022-09-20T16:18:52.995Z,46.48
2022-09-20T16:20:56.576Z,47.53
2022-09-20T16:23:00.021Z,48.28
2022-09-20T16:25:06.061Z,48.01
2022-09-20T16:27:10.758Z,47.69
2022-09-20T16:29:14.774Z,48.76
2022-09-20T16:31:34.763Z,49.35
2022-09-20T16:33:38.400Z,50.22
2022-09-20T16:35:41.952Z,50.69
2022-09-20T16:37:45.450Z,51.70
2022-09-20T16:39:49.064Z,52.15
2022-09-20T16:41:53.148Z,52.83
2022-09-20T16:43:57.048Z,53.08
2022-09-20T16:46:01.456Z,53.06
2022-09-20T16:48:08.616Z,53.55
2022-09-20T16:50:13.025Z,53.57
2022-09-20T16:52:16.529Z,53.92
2022-09-20T16:54:20.513Z,54.32
2022-09-20T16:56:25.433Z,54.81
2022-09-20T16:58:29.976Z,54.97
2022-09-20T17:00:34.178Z,55.23
2022-09-20T17:02:37.927Z,55.41
2022-09-20T17:04:43.691Z,55.40
2022-09-20T17:06:47.859Z,56.06
2022-09-20T17:08:58.647Z,55.97
2022-09-20T17:11:02.900Z,56.40
2022-09-20T17:13:07.496Z,57.02
2022-09-20T17:15:13.246Z,56.75
2022-09-20T17:17:17.032Z,56.29
2022-09-20T17:19:21.726Z,56.79
2022-09-20T17:21:27.854Z,56.71
2022-09-20T17:23:33.360Z,57.16
2022-09-20T17:25:36.908Z,57.26
2022-09-20T17:27:40.263Z,57.13
2022-09-20T17:29:45.401Z,57.37
2022-09-20T17:31:55.049Z,57.30
2022-09-20T17:34:00.225Z,57.54
2022-09-20T17:36:04.659Z,57.58
2022-09-20T17:38:10.396Z,57.31
2022-09-20T17:40:13.864Z,57.81
2022-09-20T17:42:17.239Z,58.18
2022-09-20T17:44:20.653Z,58.35
2022-09-20T17:46:26.016Z,58.52
2022-09-20T17:48:30.929Z,58.53
2022-09-20T17:50:34.249Z,58.84
2022-09-20T17:52:37.572Z,59.40
2022-09-20T17:54:42.213Z,59.79
2022-09-20T17:56:50.147Z,60.23
2022-09-20T17:58:53.679Z,60.72
2022-09-20T18:01:03.773Z,61.67
2022-09-20T18:03:07.162Z,62.34
2022-09-20T18:05:10.745Z,62.46
2022-09-20T18:07:14.082Z,63.14
2022-09-20T18:09:19.240Z,62.84
2022-09-20T18:11:27.995Z,62.26
2022-09-20T18:13:31.455Z,62.00
2022-09-20T18:15:34.924Z,61.89
2022-09-20T18:17:38.243Z,61.41
2022-09-20T18:19:43.132Z,61.02
2022-09-20T18:21:46.471Z,60.94
2022-09-20T18:23:50.650Z,60.87
2022-09-20T18:26:11.629Z,60.77
2022-09-20T18:28:17.927Z,60.64
2022-09-20T18:30:21.649Z,60.65
2022-09-20T18:32:26.833Z,60.72
2022-09-20T18:34:32.019Z,60.83
2022-09-20T18:36:38.364Z,60.70
2022-09-20T18:38:45.555Z,60.71
2022-09-20T18:40:55.660Z,60.79
2022-09-20T18:43:04.475Z,61.02
2022-09-20T18:45:10.991Z,60.97
2022-09-20T18:47:14.979Z,61.43
2022-09-20T18:49:18.423Z,61.23
2022-09-20T18:51:22.258Z,61.79
2022-09-20T18:53:27.321Z,61.64
2022-09-20T18:55:31.235Z,62.03
2022-09-20T18:57:35.170Z,62.41
2022-09-20T18:59:39.100Z,62.36
2022-09-20T19:02:15.884Z,62.71
2022-09-20T19:04:40.259Z,63.12
2022-09-20T19:06:49.884Z,63.48
2022-09-20T19:09:01.970Z,63.67
2022-09-20T19:11:10.786Z,64.49
2022-09-20T19:13:26.688Z,64.54
2022-09-20T19:15:44.572Z,64.45
2022-09-20T19:18:02.141Z,65.24
2022-09-20T19:20:13.685Z,65.58
2022-09-20T19:22:28.650Z,66.21
2022-09-20T19:24:44.183Z,66.00
2022-09-20T19:26:47.996Z,66.20
2022-09-20T19:28:55.098Z,66.39
2022-09-20T19:30:59.114Z,66.53
2022-09-20T19:33:04.569Z,66.98
2022-09-20T19:35:18.870Z,67.28
2022-09-20T19:37:31.017Z,67.66
2022-09-20T19:39:48.930Z,67.89
2022-09-20T19:42:07.698Z,68.52
2022-09-20T19:44:37.618Z,68.74
2022-09-20T19:46:59.615Z,69.63
2022-09-20T19:49:14.271Z,70.17
2022-09-20T19:51:18.116Z,70.19
2022-09-20T19:53:24.114Z,70.31
2022-09-20T19:55:27.931Z,70.69
2022-09-20T19:57:39.694Z,70.68
2022-09-20T19:59:44.043Z,69.94
2022-09-20T20:01:48.045Z,70.36
2022-09-20T20:03:52.519Z,70.20
2022-09-20T20:06:08.082Z,70.72
2022-09-20T20:08:17.242Z,71.99
2022-09-20T20:10:28.032Z,71.55
2022-09-20T20:12:36.176Z,71.85
2022-09-20T20:14:50.262Z,71.83
2022-09-20T20:17:03.882Z,71.95
2022-09-20T20:19:24.996Z,71.43
2022-09-20T20:21:41.693Z,72.06
2022-09-20T20:23:55.312Z,72.46
2022-09-20T20:26:03.416Z,72.42
2022-09-20T20:28:07.761Z,72.21
2022-09-20T20:30:12.341Z,72.25
2022-09-20T20:32:16.037Z,72.26
2022-09-20T20:34:20.523Z,71.72
2022-09-20T20:36:23.876Z,72.26
2022-09-20T20:38:30.021Z,72.20
2022-09-20T20:40:33.323Z,71.89
2022-09-20T20:42:37.035Z,71.96
2022-09-20T20:44:40.635Z,72.60
2022-09-20T20:46:43.996Z,72.51
2022-09-20T20:48:48.273Z,72.77
2022-09-20T20:51:00.771Z,72.71
2022-09-20T20:53:06.686Z,72.78
2022-09-20T20:55:11.614Z,72.79
2022-09-20T20:57:16.918Z,72.19
2022-09-20T20:59:20.529Z,73.07
2022-09-20T21:01:26.331Z,72.82
2022-09-20T21:03:30.646Z,73.31
2022-09-20T21:05:34.069Z,72.90
2022-09-20T21:07:37.452Z,73.00
2022-09-20T21:09:40.812Z,73.40
2022-09-20T21:11:48.284Z,73.23
2022-09-20T21:13:51.877Z,74.29
2022-09-20T21:15:55.241Z,75.10
2022-09-20T21:17:58.753Z,74.94
2022-09-20T21:20:02.507Z,75.02
2022-09-20T21:22:05.902Z,75.03
2022-09-20T21:24:10.944Z,75.93
2022-09-20T21:26:15.851Z,75.43
2022-09-20T21:28:20.545Z,75.42
2022-09-20T21:30:23.882Z,76.25
2022-09-20T21:32:27.233Z,75.93
2022-09-20T21:34:30.608Z,75.86
2022-09-20T21:36:35.054Z,75.73
2022-09-20T21:38:38.432Z,76.64
2022-09-20T21:40:41.846Z,76.91
2022-09-20T21:42:45.171Z,77.11
2022-09-20T21:44:51.584Z,78.16
2022-09-20T21:46:55.024Z,77.24
2022-09-20T21:49:00.055Z,77.82
2022-09-20T21:51:05.214Z,78.35
2022-09-20T21:53:08.535Z,77.95
2022-09-20T21:55:11.854Z,77.79
2022-09-20T21:57:15.194Z,78.43
2022-09-20T21:59:20.385Z,78.10
2022-09-20T22:01:26.749Z,78.56
2022-09-20T22:03:35.193Z,78.17
2022-09-20T22:05:38.532Z,77.74
2022-09-20T22:07:41.914Z,77.46
2022-09-20T22:09:45.265Z,77.52
2022-09-20T22:11:49.843Z,76.97
2022-09-20T22:13:55.334Z,76.69
2022-09-20T22:16:05.106Z,77.22
2022-09-20T22:18:09.817Z,77.13
2022-09-20T22:20:13.142Z,76.30
2022-09-20T22:22:16.506Z,76.91
2022-09-20T22:24:19.879Z,77.56
2022-09-20T22:26:23.300Z,78.01
2022-09-20T22:28:26.604Z,78.82
2022-09-20T22:30:29.941Z,78.13
2022-09-20T22:32:33.339Z,78.31
2022-09-20T22:34:38.446Z,78.30
2022-09-20T22:36:42.899Z,78.46
2022-09-20T22:38:46.847Z,79.12
2022-09-20T22:40:54.797Z,78.51
2022-09-20T22:42:58.170Z,79.11
2022-09-20T22:45:01.617Z,79.50
2022-09-20T22:47:05.240Z,79.11
2022-09-20T22:49:09.980Z,78.83
2022-09-20T22:51:17.209Z,78.58
2022-09-20T22:53:20.542Z,78.34
2022-09-20T22:55:24.208Z,78.24
2022-09-20T22:57:27.532Z,78.02
2022-09-20T22:59:30.940Z,78.23
2022-09-20T23:01:36.199Z,78.22
2022-09-20T23:03:40.840Z,78.03
2022-09-20T23:05:45.360Z,77.88
2022-09-20T23:07:50.707Z,77.37
2022-09-20T23:09:54.013Z,78.04
2022-09-20T23:11:57.307Z,77.41
2022-09-20T23:14:04.803Z,77.81
2022-09-20T23:31:16.815Z,78.48
2022-09-20T23:33:20.309Z,79.76
2022-09-20T23:35:23.631Z,79.50
2022-09-20T23:42:21.308Z,79.48
2022-09-20T23:44:24.780Z,79.16
2022-09-20T23:46:29.583Z,79.04
2022-09-20T23:48:36.034Z,78.96
2022-09-20T23:50:39.372Z,78.54
2022-09-20T23:52:42.735Z,78.50
2022-09-20T23:54:46.090Z,77.95
2022-09-20T23:56:49.713Z,77.28
2022-09-20T23:58:54.013Z,78.05
